Time;durP1;ratioP1;P1;durP2;ratioP2;P2;SDS_P1;SDS_P2;PMS_P1;PMS_P2;Temp;Humidity;BMP_temperature;BMP_pressure;BME280_temperature;BME280_humidity;BME280_pressure;Samples;Min_cycle;Max_cycle;Signal;HPM_P1;HPM_P2
2021/12/05 00:17:41;;;;;;;10.10;3.00;;;5.30;99.90;;;;;;5048679;28;20424;-82
2021/12/05 00:20:43;;;;;;;6.27;2.63;;;5.40;99.90;;;;;;5048547;28;20513;-83
2021/12/05 00:23:14;;;;;;;9.80;3.30;;;5.40;99.90;;;;;;5047148;28;20465;-83
2021/12/05 00:25:46;;;;;;;14.87;3.00;;;5.50;99.90;;;;;;5047505;28;20439;-83
2021/12/05 00:28:41;;;;;;;13.33;3.10;;;5.40;99.90;;;;;;5046951;28;20475;-82
2021/12/05 00:31:22;;;;;;;8.17;2.93;;;5.40;99.90;;;;;;5047209;28;20512;-83
2021/12/05 00:47:43;;;;;;;9.77;2.80;;;5.30;99.90;;;;;;5058749;28;20529;-81
2021/12/05 00:56:12;;;;;;;7.50;2.20;;;5.00;99.90;;;;;;5005396;28;20456;-79
2021/12/05 01:01:59;;;;;;;11.60;2.90;;;4.70;99.90;;;;;;5059871;28;20457;-80
2021/12/05 01:07:21;;;;;;;7.07;3.60;;;4.60;99.90;;;;;;5035821;28;20450;-80
2021/12/05 01:09:52;;;;;;;10.00;2.67;;;4.60;99.90;;;;;;5057528;28;20490;-80
2021/12/05 01:12:39;;;;;;;9.43;3.17;;;4.50;99.90;;;;;;5056816;28;20818;-81
2021/12/05 01:15:09;;;;;;;8.00;2.30;;;4.50;99.90;;;;;;5055634;28;20481;-81
2021/12/05 01:17:42;;;;;;;13.43;2.83;;;4.50;99.90;;;;;;5059536;28;20444;-81
2021/12/05 01:20:13;;;;;;;4.67;2.33;;;4.50;99.90;;;;;;5062373;28;20477;-81
2021/12/05 01:22:46;;;;;;;10.00;2.77;;;4.50;99.90;;;;;;5057066;28;20463;-81
2021/12/05 01:25:23;;;;;;;17.97;4.03;;;4.60;99.90;;;;;;5056963;28;20512;-81
2021/12/05 01:27:57;;;;;;;12.87;2.53;;;4.60;99.90;;;;;;5037229;28;20502;-81
2021/12/05 01:30:33;;;;;;;9.33;3.30;;;4.70;99.90;;;;;;5038587;28;20562;-81
2021/12/05 01:33:07;;;;;;;6.83;2.33;;;4.80;99.90;;;;;;5057364;28;20443;-81
2021/12/05 01:35:50;;;;;;;6.83;2.70;;;4.90;99.90;;;;;;5056802;28;20452;-81
2021/12/05 01:38:29;;;;;;;7.30;2.80;;;5.00;99.90;;;;;;5057087;28;20452;-81
2021/12/05 01:41:15;;;;;;;8.70;3.00;;;5.00;99.90;;;;;;5056348;28;20868;-81
2021/12/05 01:46:53;;;;;;;9.80;3.60;;;5.10;99.90;;;;;;5044896;28;20441;-80
2021/12/05 01:52:33;;;;;;;6.10;3.00;;;5.10;99.90;;;;;;5056261;28;20432;-82
2021/12/05 02:00:53;;;;;;;5.80;2.07;;;5.30;99.90;;;;;;5053903;28;20462;-82
2021/12/05 02:09:23;;;;;;;8.20;2.67;;;5.40;99.90;;;;;;5056806;28;20443;-82
2021/12/05 02:33:56;;;;;;;9.13;2.30;;;5.40;99.90;;;;;;5023167;28;20436;-81
2021/12/05 02:36:53;;;;;;;6.20;2.47;;;5.40;99.90;;;;;;5056624;28;20523;-81
2021/12/05 02:39:38;;;;;;;8.57;2.20;;;5.30;99.90;;;;;;5056847;28;20447;-82
2021/12/05 02:42:12;;;;;;;11.60;2.57;;;5.20;99.90;;;;;;5055932;28;20453;-81
2021/12/05 02:44:40;;;;;;;4.07;1.77;;;5.20;99.90;;;;;;5058004;28;20448;-82
2021/12/05 02:47:11;;;;;;;8.90;2.53;;;5.10;99.90;;;;;;5058983;28;20443;-81
2021/12/05 02:49:41;;;;;;;7.23;1.90;;;5.10;99.90;;;;;;5059566;28;20587;-81
2021/12/05 02:52:12;;;;;;;6.83;2.10;;;5.10;99.90;;;;;;5059594;28;20996;-81
2021/12/05 02:54:42;;;;;;;8.20;2.37;;;5.10;99.90;;;;;;5059425;28;20520;-81
2021/12/05 02:57:09;;;;;;;8.90;2.50;;;5.10;99.90;;;;;;5060471;28;20459;-81
2021/12/05 02:59:45;;;;;;;7.70;3.40;;;5.10;99.90;;;;;;5059888;28;20478;-81
2021/12/05 03:02:16;;;;;;;14.70;2.57;;;5.00;99.90;;;;;;5060644;28;20518;-81
2021/12/05 03:04:51;;;;;;;7.83;2.33;;;5.00;99.90;;;;;;5060674;28;20474;-81
2021/12/05 03:07:26;;;;;;;9.10;3.97;;;4.90;99.90;;;;;;5062061;28;20448;-81
2021/12/05 03:09:53;;;;;;;4.40;2.20;;;4.90;99.90;;;;;;5058804;28;20561;-81
2021/12/05 03:12:20;;;;;;;10.47;2.30;;;5.00;99.90;;;;;;5059480;28;20445;-81
2021/12/05 03:14:49;;;;;;;10.20;2.60;;;5.00;99.90;;;;;;5059257;28;20450;-81
2021/12/05 03:17:16;;;;;;;11.63;3.57;;;5.00;99.90;;;;;;5059086;28;20458;-81
2021/12/05 03:19:43;;;;;;;16.30;3.20;;;5.10;99.90;;;;;;5058462;28;20472;-81
2021/12/05 03:22:10;;;;;;;10.20;3.00;;;5.10;99.90;;;;;;5058854;28;20471;-81
2021/12/05 03:24:38;;;;;;;13.63;2.80;;;5.10;99.90;;;;;;5059471;28;20456;-81
2021/12/05 03:27:05;;;;;;;14.43;2.40;;;5.00;99.90;;;;;;5059408;28;20458;-81
2021/12/05 03:29:32;;;;;;;6.80;2.43;;;4.90;99.90;;;;;;5060177;28;20472;-81
2021/12/05 03:31:59;;;;;;;8.07;2.07;;;4.90;99.90;;;;;;5058752;28;20484;-81
2021/12/05 03:34:28;;;;;;;8.10;2.60;;;4.80;99.90;;;;;;5060621;28;20449;-80
2021/12/05 03:36:57;;;;;;;11.10;2.07;;;4.80;99.90;;;;;;5060135;28;20456;-82
2021/12/05 03:39:24;;;;;;;6.37;2.67;;;4.80;99.90;;;;;;5059035;28;20475;-82
2021/12/05 03:41:54;;;;;;;6.87;1.80;;;4.80;99.90;;;;;;5058079;28;20444;-82
2021/12/05 03:44:23;;;;;;;9.17;2.33;;;4.90;99.90;;;;;;5058887;28;20449;-82
2021/12/05 03:46:51;;;;;;;9.20;2.07;;;5.00;99.90;;;;;;5058133;28;20456;-82
2021/12/05 03:49:18;;;;;;;8.73;2.50;;;5.00;99.90;;;;;;5058986;28;20457;-82
2021/12/05 03:51:49;;;;;;;10.53;2.33;;;5.00;99.90;;;;;;5057215;28;20491;-81
2021/12/05 03:54:16;;;;;;;14.50;2.40;;;4.90;99.90;;;;;;5058925;28;20444;-82
2021/12/05 03:56:44;;;;;;;12.37;2.53;;;5.00;99.90;;;;;;5058870;28;20463;-82
2021/12/05 03:59:13;;;;;;;15.60;3.17;;;5.00;99.90;;;;;;5058088;28;20458;-82
2021/12/05 04:01:41;;;;;;;7.13;2.00;;;4.90;99.90;;;;;;5057366;28;20436;-81
2021/12/05 04:04:09;;;;;;;14.00;3.33;;;4.90;99.90;;;;;;5057525;28;20836;-81
2021/12/05 04:06:37;;;;;;;6.93;2.40;;;4.90;99.90;;;;;;5058239;28;20455;-82
2021/12/05 04:09:07;;;;;;;8.07;2.30;;;4.90;99.90;;;;;;5058373;28;20446;-82
2021/12/05 04:11:38;;;;;;;7.33;2.03;;;5.00;99.90;;;;;;5057592;28;21030;-82
2021/12/05 04:14:08;;;;;;;5.50;1.80;;;4.90;99.90;;;;;;5058093;28;20487;-82
2021/12/05 04:16:37;;;;;;;11.67;2.43;;;4.90;99.90;;;;;;5058966;28;20445;-82
2021/12/05 04:19:06;;;;;;;8.03;2.77;;;4.90;99.90;;;;;;5058078;28;20449;-82
2021/12/05 04:21:35;;;;;;;6.47;2.13;;;4.90;99.90;;;;;;5057222;28;20835;-82
2021/12/05 04:24:03;;;;;;;7.00;2.27;;;4.90;99.90;;;;;;5057881;28;21189;-82
2021/12/05 04:26:30;;;;;;;7.67;2.40;;;4.90;99.90;;;;;;5057559;28;20455;-81
2021/12/05 04:28:57;;;;;;;11.00;3.13;;;4.90;99.90;;;;;;5057552;28;20457;-81
2021/12/05 04:31:24;;;;;;;8.50;2.40;;;4.90;99.90;;;;;;5057173;28;20484;-81
2021/12/05 04:33:52;;;;;;;6.77;2.83;;;4.90;99.90;;;;;;5057906;28;20934;-82
2021/12/05 04:36:20;;;;;;;10.00;2.00;;;4.90;99.90;;;;;;5057672;28;20472;-81
2021/12/05 04:38:47;;;;;;;9.90;2.00;;;4.90;99.90;;;;;;5061852;28;20451;-81
2021/12/05 04:41:14;;;;;;;10.17;2.50;;;4.90;99.90;;;;;;5065376;28;20475;-82
2021/12/05 04:43:41;;;;;;;5.33;2.10;;;4.90;99.90;;;;;;5057836;28;20461;-81
2021/12/05 04:46:10;;;;;;;9.50;2.83;;;4.90;99.90;;;;;;5057744;28;20452;-81
2021/12/05 04:48:37;;;;;;;9.17;2.30;;;4.90;99.90;;;;;;5056079;28;20451;-81
2021/12/05 04:51:08;;;;;;;4.50;1.63;;;4.90;99.90;;;;;;5057222;28;20489;-81
2021/12/05 04:53:35;;;;;;;7.33;1.97;;;4.80;99.90;;;;;;5056761;28;20488;-81
2021/12/05 04:56:02;;;;;;;6.30;1.80;;;4.90;99.90;;;;;;5057872;28;20792;-81
2021/12/05 04:58:29;;;;;;;8.40;1.97;;;4.90;99.90;;;;;;5057065;28;20452;-81
2021/12/05 05:00:57;;;;;;;8.20;2.20;;;4.80;99.90;;;;;;5056448;28;20487;-81
2021/12/05 05:03:24;;;;;;;6.83;2.10;;;4.80;99.90;;;;;;5057350;28;20453;-81
2021/12/05 05:05:58;;;;;;;9.93;2.70;;;4.70;99.90;;;;;;5057202;28;20455;-81
2021/12/05 05:08:29;;;;;;;9.07;1.90;;;4.70;99.90;;;;;;5057394;28;20452;-81
2021/12/05 05:10:56;;;;;;;13.43;3.13;;;4.70;99.90;;;;;;5056380;28;20578;-85
2021/12/05 05:13:23;;;;;;;5.50;2.00;;;4.50;99.90;;;;;;5057171;28;20456;-80
2021/12/05 05:15:50;;;;;;;5.10;2.23;;;4.60;99.90;;;;;;5056724;28;20452;-80
2021/12/05 05:18:16;;;;;;;6.23;1.90;;;4.50;99.90;;;;;;5057393;28;20454;-81
2021/12/05 05:20:51;;;;;;;4.17;1.50;;;4.40;99.90;;;;;;5057196;28;20468;-81
2021/12/05 05:23:31;;;;;;;7.10;2.00;;;4.30;99.90;;;;;;5057818;28;20464;-81
2021/12/05 05:40:09;;;;;;;6.83;2.40;;;4.20;99.90;;;;;;5056071;28;20506;-81
2021/12/05 05:45:51;;;;;;;10.80;2.60;;;4.50;99.90;;;;;;5058532;28;20447;-85
2021/12/05 05:51:10;;;;;;;5.40;1.30;;;4.50;99.90;;;;;;5040043;28;20488;-82
2021/12/05 05:53:37;;;;;;;14.30;2.87;;;4.40;99.90;;;;;;5056361;28;20455;-82
2021/12/05 05:56:08;;;;;;;5.23;1.70;;;4.50;99.90;;;;;;5056548;28;20812;-82
2021/12/05 05:58:44;;;;;;;5.50;2.13;;;4.60;99.90;;;;;;5057265;28;21030;-82
2021/12/05 06:01:19;;;;;;;5.70;1.30;;;4.60;99.90;;;;;;5055563;28;20475;-82
2021/12/05 06:03:47;;;;;;;12.17;2.47;;;4.50;99.90;;;;;;5057006;28;20452;-82
2021/12/05 06:06:16;;;;;;;8.47;1.87;;;4.50;99.90;;;;;;5056973;28;20456;-82
2021/12/05 06:08:45;;;;;;;7.23;1.77;;;4.60;99.90;;;;;;5056645;28;20461;-83
2021/12/05 06:11:14;;;;;;;8.30;1.93;;;4.60;99.90;;;;;;5056354;28;20479;-80
2021/12/05 06:13:43;;;;;;;7.50;1.43;;;4.60;99.90;;;;;;5056566;28;20477;-82
2021/12/05 06:16:12;;;;;;;7.23;1.60;;;4.70;99.90;;;;;;5062019;28;20444;-82
2021/12/05 06:18:40;;;;;;;11.20;1.53;;;4.70;99.90;;;;;;5064516;28;20952;-83
2021/12/05 06:21:07;;;;;;;6.77;1.50;;;4.80;99.90;;;;;;5055876;28;20465;-82
2021/12/05 06:23:35;;;;;;;9.17;2.00;;;4.80;99.90;;;;;;5060050;28;20443;-82
2021/12/05 06:26:03;;;;;;;13.13;4.90;;;4.80;99.90;;;;;;5059457;28;20822;-82
2021/12/05 06:28:34;;;;;;;6.47;1.93;;;4.80;99.90;;;;;;5061811;28;20455;-84
2021/12/05 06:31:14;;;;;;;7.13;1.90;;;4.80;99.90;;;;;;5060749;28;20519;-84
2021/12/05 06:42:02;;;;;;;7.90;1.97;;;5.00;99.90;;;;;;5060972;28;20428;-84
2021/12/05 06:47:16;;;;;;;5.47;1.30;;;5.10;99.90;;;;;;5060958;28;20478;-84
2021/12/05 06:49:44;;;;;;;4.43;1.40;;;5.10;99.90;;;;;;5058767;28;20462;-84
2021/12/05 06:52:11;;;;;;;4.87;1.47;;;5.20;99.90;;;;;;5060233;28;20484;-85
2021/12/05 06:54:40;;;;;;;5.77;1.43;;;5.20;99.90;;;;;;5060740;28;20474;-83
2021/12/05 06:57:07;;;;;;;3.27;1.17;;;5.30;99.90;;;;;;5060613;28;20495;-83
2021/12/05 06:59:37;;;;;;;4.67;1.50;;;5.30;99.90;;;;;;5061075;28;20477;-83
2021/12/05 07:02:04;;;;;;;6.40;1.60;;;5.30;99.90;;;;;;5059530;28;20960;-84
2021/12/05 07:04:49;;;;;;;5.00;1.60;;;5.40;99.90;;;;;;5060685;28;20461;-83
2021/12/05 07:07:21;;;;;;;5.20;1.93;;;5.40;99.90;;;;;;5060679;28;20457;-84
2021/12/05 07:09:49;;;;;;;4.20;1.50;;;5.40;99.90;;;;;;5060025;28;20471;-83
2021/12/05 07:15:08;;;;;;;3.90;1.30;;;5.30;99.90;;;;;;5045385;28;20510;-82
2021/12/05 07:20:18;;;;;;;5.20;1.40;;;5.50;99.90;;;;;;5055570;28;21259;-81
2021/12/05 07:22:56;;;;;;;3.27;1.20;;;5.50;99.90;;;;;;5051019;28;20651;-82
2021/12/05 07:25:30;;;;;;;7.63;1.40;;;5.50;99.90;;;;;;5057477;28;20434;-83
2021/12/05 07:41:48;;;;;;;7.00;1.70;;;5.40;99.90;;;;;;5047339;28;20423;-82
2021/12/05 07:44:16;;;;;;;2.40;1.10;;;5.50;99.90;;;;;;5050239;28;20465;-84
2021/12/05 07:46:43;;;;;;;6.50;1.47;;;5.60;99.90;;;;;;5051494;28;20480;-82
2021/12/05 07:49:11;;;;;;;5.83;1.87;;;5.60;99.90;;;;;;5051277;28;20545;-83
2021/12/05 07:51:45;;;;;;;3.87;1.10;;;5.60;99.90;;;;;;5058218;28;21021;-82
2021/12/05 07:54:21;;;;;;;4.47;1.27;;;5.70;99.90;;;;;;5065070;28;20442;-82
2021/12/05 07:56:59;;;;;;;2.30;1.30;;;5.60;99.90;;;;;;5056198;28;20504;-82
2021/12/05 07:59:39;;;;;;;4.63;1.37;;;5.70;99.90;;;;;;5053907;28;20479;-83
2021/12/05 08:16:03;;;;;;;8.10;1.67;;;5.70;99.90;;;;;;5059551;28;20438;-84
2021/12/05 08:18:31;;;;;;;5.87;1.47;;;5.80;99.90;;;;;;5059974;28;20541;-83
2021/12/05 08:20:59;;;;;;;3.13;1.60;;;5.90;99.90;;;;;;5058674;28;20476;-83
2021/12/05 08:23:28;;;;;;;4.83;1.73;;;5.90;99.90;;;;;;5059500;28;20454;-83
2021/12/05 08:26:04;;;;;;;3.57;1.50;;;6.00;99.90;;;;;;5059705;28;20445;-83
2021/12/05 08:28:48;;;;;;;5.57;1.83;;;6.10;99.90;;;;;;5061798;28;20465;-84
2021/12/05 08:31:24;;;;;;;5.93;1.50;;;6.10;99.90;;;;;;5058887;28;20478;-83
2021/12/05 08:34:03;;;;;;;3.17;1.10;;;6.20;99.90;;;;;;5058310;28;20460;-83
2021/12/05 08:37:03;;;;;;;5.10;1.63;;;6.30;99.90;;;;;;5059582;28;20453;-83
2021/12/05 08:40:08;;;;;;;4.40;1.50;;;6.30;99.90;;;;;;5059887;28;20475;-83
2021/12/05 08:42:56;;;;;;;6.00;1.67;;;6.30;99.90;;;;;;5059653;28;20458;-83
2021/12/05 09:26:53;;;;;;;4.07;1.30;;;6.30;99.90;;;;;;5056310;28;20472;-84
2021/12/05 09:50:59;;;;;;;5.40;1.47;;;6.50;99.90;;;;;;5043877;28;20526;-85
2021/12/05 09:52:26;;;;;;;2.90;1.10;;;6.60;99.90;;;;;;5050214;28;20517;-83
2021/12/05 10:03:12;;;;;;;6.63;1.70;;;6.50;99.90;;;;;;5046040;28;20426;-83
2021/12/05 10:08:48;;;;;;;4.80;1.30;;;6.50;99.90;;;;;;5049303;28;20950;-82
2021/12/05 10:11:36;;;;;;;3.90;1.40;;;6.60;99.90;;;;;;5048005;28;20478;-84
2021/12/05 10:14:22;;;;;;;3.40;1.87;;;6.60;99.90;;;;;;5046377;28;20454;-83
2021/12/05 10:17:06;;;;;;;2.50;1.47;;;6.60;99.90;;;;;;5063660;28;20849;-83
2021/12/05 10:36:14;;;;;;;3.10;1.43;;;7.00;99.90;;;;;;5061804;28;20434;-85
2021/12/05 10:38:47;;;;;;;3.07;1.30;;;7.00;99.90;;;;;;5063152;28;20477;-84
2021/12/05 10:41:35;;;;;;;4.67;1.70;;;7.00;99.90;;;;;;5060850;28;20479;-84
2021/12/05 10:44:08;;;;;;;3.60;1.37;;;7.00;99.90;;;;;;5062323;28;20540;-83
2021/12/05 10:46:37;;;;;;;3.20;1.20;;;7.00;99.90;;;;;;5063524;28;20457;-84
2021/12/05 10:49:07;;;;;;;2.63;1.07;;;7.10;99.90;;;;;;5049962;28;20453;-83
2021/12/05 10:51:38;;;;;;;3.97;1.40;;;7.20;99.90;;;;;;5035806;28;20837;-82
2021/12/05 10:54:08;;;;;;;2.77;1.40;;;7.20;99.90;;;;;;5036901;28;20459;-82
2021/12/05 10:56:40;;;;;;;4.33;1.63;;;7.20;99.90;;;;;;5037651;28;20471;-83
2021/12/05 10:59:12;;;;;;;4.13;1.50;;;7.20;99.90;;;;;;5037804;28;20449;-84
2021/12/05 11:01:42;;;;;;;2.43;1.40;;;7.10;99.90;;;;;;5037274;28;20804;-83
2021/12/05 11:04:12;;;;;;;3.00;1.10;;;7.10;99.90;;;;;;5037742;28;20478;-83
2021/12/05 11:06:44;;;;;;;2.53;1.37;;;7.30;99.90;;;;;;5038544;28;20435;-84
2021/12/05 11:09:14;;;;;;;4.47;1.23;;;7.20;99.90;;;;;;5045470;28;20964;-83
2021/12/05 11:11:43;;;;;;;4.13;1.23;;;7.20;99.90;;;;;;5041890;28;20448;-83
2021/12/05 11:14:13;;;;;;;2.73;1.17;;;7.50;99.90;;;;;;5043078;28;20463;-84
2021/12/05 11:16:55;;;;;;;2.77;1.30;;;7.50;99.90;;;;;;5061482;28;20454;-83
2021/12/05 11:19:26;;;;;;;2.97;1.10;;;7.60;99.90;;;;;;5059823;28;20463;-84
2021/12/05 11:21:58;;;;;;;3.70;1.40;;;8.10;99.90;;;;;;5058234;28;20526;-82
2021/12/05 11:24:29;;;;;;;2.53;1.40;;;8.30;99.90;;;;;;5060843;28;20437;-84
2021/12/05 11:27:16;;;;;;;2.80;1.40;;;8.70;99.90;;;;;;5064668;28;20447;-85
2021/12/05 11:29:49;;;;;;;4.63;1.10;;;8.70;99.90;;;;;;5063729;28;20470;-86
2021/12/05 11:32:19;;;;;;;3.90;1.10;;;8.60;99.90;;;;;;5062431;28;20476;-85
2021/12/05 11:34:47;;;;;;;3.50;1.00;;;8.60;99.90;;;;;;5063624;28;20519;-84
2021/12/05 11:37:16;;;;;;;2.40;1.10;;;8.60;99.90;;;;;;5064410;28;20815;-85
2021/12/05 11:39:42;;;;;;;2.67;1.33;;;8.50;99.90;;;;;;5065854;28;20479;-85
2021/12/05 11:42:18;;;;;;;3.60;1.20;;;8.40;99.90;;;;;;5053646;28;20452;-88
2021/12/05 11:45:29;;;;;;;2.80;0.97;;;8.50;99.90;;;;;;5054412;28;20444;-89
2021/12/05 11:47:58;;;;;;;2.57;1.20;;;8.40;99.90;;;;;;5050677;28;20547;-87
2021/12/05 11:50:34;;;;;;;4.30;1.50;;;8.50;99.90;;;;;;5054071;28;20455;-85
2021/12/05 11:53:06;;;;;;;2.20;1.20;;;8.10;99.90;;;;;;5049987;28;20315;-82
2021/12/05 11:58:18;;;;;;;3.50;1.10;;;8.30;99.90;;;;;;5053802;28;20447;-83
2021/12/05 12:00:47;;;;;;;4.30;1.10;;;8.20;99.90;;;;;;5055476;28;20558;-82
2021/12/05 12:03:14;;;;;;;3.00;1.23;;;8.20;99.90;;;;;;5056232;28;20522;-83
2021/12/05 12:05:41;;;;;;;4.43;1.57;;;8.20;99.90;;;;;;5058496;28;20448;-84
2021/12/05 12:08:12;;;;;;;4.17;1.17;;;8.20;99.90;;;;;;5058729;28;20974;-84
2021/12/05 12:10:42;;;;;;;3.00;1.17;;;8.00;99.90;;;;;;5059207;28;20468;-84
2021/12/05 12:13:11;;;;;;;3.60;1.10;;;7.90;99.90;;;;;;5060234;28;20515;-84
2021/12/05 12:15:41;;;;;;;2.50;1.20;;;8.00;99.90;;;;;;5059954;28;20520;-84
2021/12/05 12:18:16;;;;;;;2.20;1.00;;;7.90;99.90;;;;;;5062924;28;20486;-84
2021/12/05 12:20:46;;;;;;;3.33;1.30;;;7.90;99.90;;;;;;5063866;28;20505;-87
2021/12/05 12:23:15;;;;;;;2.53;1.07;;;7.90;99.90;;;;;;5060437;28;20940;-87
2021/12/05 12:25:45;;;;;;;2.87;1.00;;;8.00;99.90;;;;;;5057632;28;20899;-87
2021/12/05 12:28:12;;;;;;;2.10;1.00;;;7.80;99.90;;;;;;5055903;28;20452;-87
2021/12/05 12:30:42;;;;;;;5.27;1.47;;;7.90;99.90;;;;;;5061183;28;20984;-86
2021/12/05 12:33:15;;;;;;;3.57;1.30;;;7.70;99.90;;;;;;5061240;28;20578;-87
2021/12/05 12:35:45;;;;;;;3.10;1.10;;;8.00;99.90;;;;;;5059647;28;20635;-88
2021/12/05 12:38:17;;;;;;;2.77;1.00;;;8.10;99.90;;;;;;5054055;28;20452;-89
2021/12/05 12:40:46;;;;;;;3.53;1.10;;;8.30;99.90;;;;;;5041528;28;20475;-87
2021/12/05 12:43:52;;;;;;;4.93;1.43;;;8.20;99.90;;;;;;5049289;28;20492;-89
2021/12/05 12:46:30;;;;;;;6.30;1.83;;;8.10;99.90;;;;;;5052914;28;20459;-88
2021/12/05 12:49:01;;;;;;;4.10;1.37;;;7.80;99.90;;;;;;5062198;28;20471;-90
2021/12/05 12:51:40;;;;;;;2.50;1.13;;;7.60;99.90;;;;;;5051809;28;21436;-88
2021/12/05 12:54:11;;;;;;;1.87;1.10;;;7.80;99.90;;;;;;5058326;28;21298;-92
2021/12/05 12:56:40;;;;;;;2.70;1.20;;;8.00;99.90;;;;;;5060179;28;20539;-90
2021/12/05 12:59:10;;;;;;;4.20;1.10;;;8.30;99.90;;;;;;5059898;28;20497;-89
2021/12/05 13:04:34;;;;;;;6.50;1.67;;;8.50;99.90;;;;;;5041541;28;20440;-86
2021/12/05 13:09:57;;;;;;;3.22;1.45;;;8.30;99.90;;;;;;5055298;28;20505;-86
2021/12/05 13:10:17;;;;;;;3.50;1.33;;;8.40;99.90;;;;;;5052985;28;20343;-87
2021/12/05 13:12:55;;;;;;;4.40;1.40;;;8.50;99.90;;;;;;5060630;28;20859;-85
2021/12/05 13:15:28;;;;;;;3.20;1.50;;;8.50;99.90;;;;;;5059260;28;20503;-87
2021/12/05 13:17:58;;;;;;;2.47;1.10;;;8.50;99.90;;;;;;5061913;28;20535;-87
2021/12/05 13:20:28;;;;;;;2.43;0.90;;;8.30;99.90;;;;;;5058921;28;20556;-88
2021/12/05 13:23:08;;;;;;;4.37;1.87;;;8.40;99.90;;;;;;5060263;28;20452;-87
2021/12/05 13:26:10;;;;;;;2.10;1.10;;;8.40;99.90;;;;;;5059877;28;20440;-87
2021/12/05 13:28:40;;;;;;;3.80;1.57;;;8.40;99.90;;;;;;5049439;28;20901;-86
2021/12/05 13:31:32;;;;;;;4.20;1.70;;;8.50;99.90;;;;;;5059876;28;20525;-86
2021/12/05 13:34:31;;;;;;;3.30;1.53;;;8.40;99.90;;;;;;5042078;28;20563;-86
2021/12/05 13:37:20;;;;;;;3.63;1.37;;;8.30;99.90;;;;;;5060515;28;20535;-86
2021/12/05 13:39:48;;;;;;;2.80;1.30;;;8.10;99.90;;;;;;5054537;28;20498;-85
2021/12/05 13:42:21;;;;;;;3.30;1.20;;;7.80;99.90;;;;;;5056919;28;20458;-88
2021/12/05 13:45:14;;;;;;;4.00;1.40;;;7.90;99.90;;;;;;5056929;28;20496;-87
2021/12/05 13:47:45;;;;;;;3.77;1.30;;;8.00;99.90;;;;;;5058279;28;20447;-86
2021/12/05 13:50:33;;;;;;;2.97;1.13;;;7.90;99.90;;;;;;5051866;28;20475;-87
2021/12/05 13:53:27;;;;;;;2.40;1.10;;;8.00;99.90;;;;;;5053240;28;20486;-86
2021/12/05 13:56:13;;;;;;;4.63;1.20;;;7.90;99.90;;;;;;5051323;28;20939;-87
2021/12/05 13:58:48;;;;;;;2.63;1.33;;;8.00;99.90;;;;;;5053430;28;20451;-87
2021/12/05 14:01:21;;;;;;;2.10;1.00;;;8.00;99.90;;;;;;5053084;28;20566;-86
2021/12/05 14:04:10;;;;;;;2.00;1.00;;;7.90;99.90;;;;;;5055790;28;20447;-86
2021/12/05 14:06:59;;;;;;;2.93;1.30;;;8.00;99.90;;;;;;5051488;28;20883;-86
2021/12/05 14:09:34;;;;;;;8.67;1.20;;;8.00;99.90;;;;;;5041869;28;20498;-82
2021/12/05 14:12:09;;;;;;;4.87;1.10;;;7.90;99.90;;;;;;5050124;28;20986;-83
2021/12/05 14:14:40;;;;;;;3.03;1.03;;;7.90;99.90;;;;;;5052368;28;20486;-84
2021/12/05 14:17:10;;;;;;;2.63;1.20;;;7.90;99.90;;;;;;5048333;28;20480;-83
2021/12/05 14:19:40;;;;;;;3.80;1.30;;;7.80;99.90;;;;;;5034162;28;20588;-83
2021/12/05 14:22:10;;;;;;;4.50;1.60;;;7.70;99.90;;;;;;5050635;28;20963;-84
2021/12/05 14:24:39;;;;;;;3.03;1.43;;;7.90;99.90;;;;;;5052310;28;20517;-83
2021/12/05 14:27:11;;;;;;;2.50;1.20;;;7.70;99.90;;;;;;5052075;28;20447;-82
2021/12/05 14:29:43;;;;;;;5.13;1.40;;;7.70;99.90;;;;;;5032717;28;20554;-82
2021/12/05 14:32:12;;;;;;;2.27;0.90;;;7.70;99.90;;;;;;5031757;28;20502;-84
2021/12/05 14:34:39;;;;;;;2.33;1.07;;;7.70;99.90;;;;;;5040612;28;20552;-83
2021/12/05 14:37:12;;;;;;;2.43;1.10;;;7.70;99.90;;;;;;5052461;28;20451;-82
2021/12/05 14:39:42;;;;;;;2.30;0.90;;;7.80;99.90;;;;;;5052058;28;21011;-84
2021/12/05 14:42:11;;;;;;;3.10;1.10;;;7.80;99.90;;;;;;5052293;28;20836;-83
2021/12/05 14:44:40;;;;;;;2.03;0.90;;;7.70;99.90;;;;;;5055884;28;20967;-83
2021/12/05 14:47:09;;;;;;;2.30;1.30;;;7.70;99.90;;;;;;5056486;28;20479;-83
2021/12/05 14:49:39;;;;;;;2.87;0.90;;;7.60;99.90;;;;;;5056082;28;20467;-84
2021/12/05 14:52:10;;;;;;;2.20;1.00;;;7.50;99.90;;;;;;5055538;28;20440;-84
2021/12/05 14:54:38;;;;;;;3.13;1.00;;;7.60;99.90;;;;;;5056120;28;20487;-82
2021/12/05 14:57:08;;;;;;;2.63;0.80;;;7.50;99.90;;;;;;5056223;28;20952;-83
2021/12/05 14:59:36;;;;;;;1.80;0.90;;;7.50;99.90;;;;;;5055635;28;20478;-81
2021/12/05 15:02:05;;;;;;;2.87;1.07;;;7.60;99.90;;;;;;5054492;28;20447;-83
2021/12/05 15:04:34;;;;;;;5.50;1.13;;;7.40;99.90;;;;;;5053074;28;20445;-81
2021/12/05 15:07:02;;;;;;;2.10;0.90;;;7.40;99.90;;;;;;5055731;28;20462;-81
2021/12/05 15:09:32;;;;;;;2.80;1.00;;;7.30;99.90;;;;;;5054533;28;20532;-83
2021/12/05 15:12:04;;;;;;;3.87;1.37;;;7.20;99.90;;;;;;5055130;28;20523;-83
2021/12/05 15:14:34;;;;;;;3.37;1.20;;;7.20;99.90;;;;;;5053331;28;20479;-84
2021/12/05 15:17:06;;;;;;;2.27;1.10;;;7.10;99.90;;;;;;5055249;28;21174;-83
2021/12/05 15:19:34;;;;;;;2.77;1.23;;;7.10;99.90;;;;;;5055101;28;20569;-82
2021/12/05 15:22:04;;;;;;;2.83;1.13;;;7.10;99.90;;;;;;5054221;28;20455;-84
2021/12/05 15:24:32;;;;;;;3.30;1.23;;;7.10;99.90;;;;;;5053976;28;20897;-83
2021/12/05 15:27:00;;;;;;;3.03;1.43;;;7.10;99.90;;;;;;5055138;28;20539;-83
2021/12/05 15:29:28;;;;;;;4.03;1.17;;;7.00;99.90;;;;;;5056790;28;20816;-81
2021/12/05 15:31:57;;;;;;;3.03;1.10;;;7.10;99.90;;;;;;5064433;28;20457;-84
2021/12/05 15:34:33;;;;;;;5.93;1.20;;;7.00;99.90;;;;;;5053894;28;20482;-81
2021/12/05 15:37:08;;;;;;;3.60;1.77;;;7.00;99.90;;;;;;5054417;28;20454;-80
2021/12/05 15:39:37;;;;;;;3.43;1.70;;;7.00;99.90;;;;;;5053854;28;20485;-81
2021/12/05 15:42:15;;;;;;;2.53;1.37;;;7.00;99.90;;;;;;5052737;28;20924;-83
2021/12/05 15:44:43;;;;;;;2.30;1.13;;;7.00;99.90;;;;;;5046751;28;20459;-81
2021/12/05 15:47:13;;;;;;;3.77;1.47;;;7.00;99.90;;;;;;5043816;28;20838;-81
2021/12/05 15:50:07;;;;;;;3.57;1.30;;;6.90;99.90;;;;;;5046260;28;20481;-81
2021/12/05 15:52:38;;;;;;;3.40;1.40;;;6.90;99.90;;;;;;5042576;28;21129;-83
2021/12/05 15:55:11;;;;;;;3.00;1.10;;;6.90;99.90;;;;;;5049304;28;20582;-82
2021/12/05 15:57:42;;;;;;;2.80;1.23;;;6.90;99.90;;;;;;5050896;28;20473;-85
2021/12/05 16:00:15;;;;;;;2.93;1.20;;;6.90;99.90;;;;;;5047824;28;20508;-84
2021/12/05 16:02:47;;;;;;;2.30;1.17;;;6.80;99.90;;;;;;5048214;28;20551;-82
2021/12/05 16:05:20;;;;;;;4.50;1.43;;;6.80;99.90;;;;;;5046116;28;20482;-83
2021/12/05 16:07:48;;;;;;;3.37;1.60;;;6.80;99.90;;;;;;5050737;28;20474;-83
2021/12/05 16:10:21;;;;;;;3.63;1.30;;;6.70;99.90;;;;;;5047679;28;20482;-84
2021/12/05 16:12:50;;;;;;;2.93;1.30;;;6.70;99.90;;;;;;5048816;28;20451;-86
2021/12/05 16:15:19;;;;;;;3.03;1.50;;;6.60;99.90;;;;;;5049132;28;21030;-86
2021/12/05 16:17:55;;;;;;;3.20;1.50;;;6.60;99.90;;;;;;5054023;28;20453;-85
2021/12/05 16:20:27;;;;;;;3.30;1.50;;;6.60;99.90;;;;;;5051288;28;20485;-85
2021/12/05 16:23:19;;;;;;;2.10;1.20;;;6.60;99.90;;;;;;5046534;28;21052;-86
2021/12/05 16:25:59;;;;;;;3.03;1.43;;;6.60;99.90;;;;;;5049824;28;20444;-86
2021/12/05 16:28:31;;;;;;;3.13;1.23;;;6.60;99.90;;;;;;5054625;28;20540;-86
2021/12/05 16:31:02;;;;;;;9.23;1.60;;;6.50;99.90;;;;;;5050281;28;20466;-80
2021/12/05 16:33:31;;;;;;;4.40;1.83;;;6.40;99.90;;;;;;5050248;28;20458;-80
2021/12/05 16:35:59;;;;;;;4.60;2.40;;;6.40;99.90;;;;;;5055734;28;20449;-81
2021/12/05 16:38:31;;;;;;;5.10;2.73;;;6.40;99.90;;;;;;5043250;28;20479;-80
2021/12/05 16:41:12;;;;;;;4.40;2.67;;;6.40;99.90;;;;;;5041268;28;20468;-81
2021/12/05 16:43:47;;;;;;;3.10;2.20;;;6.30;99.90;;;;;;5051033;28;20439;-86
2021/12/05 16:46:16;;;;;;;5.00;2.60;;;6.30;99.90;;;;;;5055663;28;20955;-85
2021/12/05 16:48:45;;;;;;;4.87;2.47;;;6.20;99.90;;;;;;5047042;28;20448;-85
2021/12/05 16:51:24;;;;;;;3.40;2.40;;;6.10;99.90;;;;;;5045353;28;20487;-85
2021/12/05 16:54:04;;;;;;;5.73;2.60;;;6.20;99.90;;;;;;5049386;28;20490;-83
2021/12/05 16:56:46;;;;;;;3.00;2.03;;;6.10;99.90;;;;;;5047603;28;20463;-84
2021/12/05 16:59:18;;;;;;;4.17;2.90;;;6.10;99.90;;;;;;5048869;28;20547;-90
2021/12/05 17:01:46;;;;;;;6.67;3.03;;;6.00;99.90;;;;;;5051252;28;20537;-91
2021/12/05 17:04:14;;;;;;;1999.90;999.90;;;6.00;99.90;;;;;;5053768;28;20546;-91
2021/12/05 17:06:49;;;;;;;4.23;2.00;;;6.00;99.90;;;;;;5052752;28;20535;-90
2021/12/05 17:09:16;;;;;;;3.67;2.00;;;6.00;99.90;;;;;;5044685;28;20533;-90
2021/12/05 17:11:43;;;;;;;3.30;2.37;;;6.00;99.90;;;;;;5049835;28;20538;-85
2021/12/05 17:14:24;;;;;;;4.33;2.40;;;6.00;99.90;;;;;;5052577;28;20564;-84
2021/12/05 17:17:02;;;;;;;3.23;2.20;;;6.00;99.90;;;;;;5045161;28;20459;-85
2021/12/05 17:19:32;;;;;;;4.27;2.40;;;6.00;99.90;;;;;;5061919;28;20553;-85
2021/12/05 17:22:00;;;;;;;2.70;2.07;;;6.00;99.90;;;;;;5065130;28;20835;-85
2021/12/05 17:24:29;;;;;;;4.37;2.90;;;6.00;99.90;;;;;;5068882;28;21041;-85
2021/12/05 17:26:59;;;;;;;4.70;3.70;;;5.90;99.90;;;;;;5052293;28;20460;-84